createdAt,value
2022-11-08T15:31:59.909Z,100200.22
2022-11-08T15:34:40.993Z,100204.38
2022-11-08T15:37:42.938Z,100206.84
2022-11-08T15:40:24.598Z,100196.53
2022-11-08T15:42:52.889Z,100198.97
2022-11-08T15:45:25.760Z,100187.28
2022-11-08T15:47:54.883Z,100207.28
2022-11-08T15:50:30.540Z,100196.63
2022-11-08T15:53:00.811Z,100197.41
2022-11-08T15:55:51.991Z,100211.38
2022-11-08T15:58:37.164Z,100209.91
2022-11-08T16:01:06.408Z,100209.25
2022-11-08T16:03:35.351Z,100210.94
2022-11-08T16:06:02.551Z,100216.88
2022-11-08T16:08:29.994Z,100207.06
2022-11-08T16:11:01.631Z,100214.31
2022-11-08T16:13:32.126Z,100192.38
2022-11-08T16:16:00.556Z,100207.09
2022-11-08T16:18:28.273Z,100207.59
2022-11-08T16:20:55.696Z,100215.72
2022-11-08T16:23:22.972Z,100204.06
2022-11-08T16:25:53.514Z,100191.25
2022-11-08T16:28:34.428Z,100209.16
2022-11-08T16:31:03.074Z,100184.16
2022-11-08T16:33:32.417Z,100208.97
2022-11-08T16:36:03.850Z,100204.75
2022-11-08T16:38:36.329Z,100212.69
2022-11-08T16:41:05.284Z,100208.47
2022-11-08T16:43:33.815Z,100209.66
2022-11-08T16:46:07.168Z,100219.25
2022-11-08T16:48:39.646Z,100212.50
2022-11-08T16:51:13.997Z,100186.31
2022-11-08T16:53:41.380Z,100211.16
2022-11-08T16:56:08.997Z,100214.03
2022-11-08T16:58:36.419Z,100200.00
2022-11-08T17:01:10.292Z,100221.59
2022-11-08T17:03:38.252Z,100231.25
2022-11-08T17:06:05.825Z,100228.00
2022-11-08T17:08:33.157Z,100227.84
2022-11-08T17:11:01.025Z,100227.63
2022-11-08T17:13:28.312Z,100219.13
2022-11-08T17:15:55.909Z,100232.38
2022-11-08T17:18:24.116Z,100224.91
2022-11-08T17:20:52.463Z,100228.63
2022-11-08T17:23:22.832Z,100227.75
2022-11-08T17:25:50.201Z,100230.97
2022-11-08T17:28:18.163Z,100206.91
2022-11-08T17:30:45.623Z,100197.09
2022-11-08T17:33:13.870Z,100219.22
2022-11-08T17:35:44.349Z,100216.66
2022-11-08T17:38:15.388Z,100217.31
2022-11-08T17:40:42.885Z,100215.47
2022-11-08T17:43:10.838Z,100205.28
2022-11-08T17:45:38.344Z,100210.38
2022-11-08T17:48:05.640Z,100213.91
2022-11-08T17:50:33.084Z,100211.81
2022-11-08T17:53:00.569Z,100203.44
2022-11-08T17:55:28.235Z,100197.34
2022-11-08T17:57:56.087Z,100221.34
2022-11-08T18:00:23.701Z,100223.66
2022-11-08T18:02:51.311Z,100222.19
2022-11-08T18:05:18.394Z,100164.94
2022-11-08T18:07:45.936Z,100228.53
2022-11-08T18:10:14.765Z,100223.91
2022-11-08T18:12:42.366Z,100221.38
2022-11-08T18:15:10.347Z,100205.72
2022-11-08T18:17:37.868Z,100219.41
2022-11-08T18:20:06.332Z,100217.56
2022-11-08T18:22:36.752Z,100216.03
2022-11-08T18:25:05.208Z,100216.47
2022-11-08T18:27:32.869Z,100219.81
2022-11-08T18:30:03.005Z,100218.84
2022-11-08T18:32:30.750Z,100215.81
2022-11-08T18:34:58.002Z,100218.09
2022-11-08T18:37:26.597Z,100207.34
2022-11-08T18:39:54.325Z,100199.06
2022-11-08T18:42:22.194Z,100205.72
2022-11-08T18:44:49.659Z,100227.06
2022-11-08T18:47:25.411Z,100207.59
2022-11-08T18:49:56.357Z,100220.66
2022-11-08T18:52:23.930Z,100215.44
2022-11-08T18:54:51.938Z,100205.81
2022-11-08T18:57:20.543Z,100213.44
2022-11-08T18:59:48.506Z,100226.13
2022-11-08T19:02:16.220Z,100222.59
2022-11-08T19:04:43.342Z,100204.28
2022-11-08T19:07:10.928Z,100221.91
2022-11-08T19:09:40.166Z,100221.91
2022-11-08T19:12:07.762Z,100223.53
2022-11-08T19:14:37.262Z,100220.63
2022-11-08T19:17:05.116Z,100216.44
2022-11-08T19:19:32.763Z,100216.59
2022-11-08T19:22:00.418Z,100214.91
2022-11-08T19:24:31.174Z,100215.28
2022-11-08T19:26:59.686Z,100208.50
2022-11-08T19:29:30.196Z,100226.13
2022-11-08T19:31:58.018Z,100234.00
2022-11-08T19:34:25.354Z,100233.16
2022-11-08T19:36:55.787Z,100238.75
2022-11-08T19:39:25.294Z,100242.38
2022-11-08T19:41:52.704Z,100235.31
2022-11-08T19:44:20.524Z,100237.38
2022-11-08T19:46:47.980Z,100224.41
2022-11-08T19:49:16.001Z,100244.09
2022-11-08T19:51:44.706Z,100240.56
2022-11-08T19:54:14.230Z,100228.84
2022-11-08T19:59:29.774Z,100244.94
2022-11-08T20:01:57.202Z,100245.41
2022-11-08T20:04:24.972Z,100246.69
2022-11-08T20:06:52.473Z,100232.16
2022-11-08T20:09:20.151Z,100244.84
2022-11-08T20:11:47.788Z,100239.94
2022-11-08T20:14:17.686Z,100249.84
2022-11-08T20:16:53.211Z,100251.78
2022-11-08T20:19:21.727Z,100225.97
2022-11-08T20:21:49.831Z,100235.13
2022-11-08T20:24:17.847Z,100247.78
2022-11-08T20:26:45.931Z,100241.41
2022-11-08T20:29:15.365Z,100244.94
2022-11-08T20:31:43.178Z,100240.72
2022-11-08T20:34:12.418Z,100225.56
2022-11-08T20:36:43.128Z,100244.09
2022-11-08T20:39:12.622Z,100236.09
2022-11-08T20:41:41.933Z,100245.19
2022-11-08T20:44:13.815Z,100222.19
2022-11-08T20:46:41.846Z,100240.72
2022-11-08T20:49:09.752Z,100237.66
2022-11-08T20:51:37.837Z,100248.09
2022-11-08T20:54:05.598Z,100253.00
2022-11-08T20:56:33.178Z,100252.47
2022-11-08T20:59:01.097Z,100254.16
2022-11-08T21:01:31.158Z,100241.56
2022-11-08T21:03:58.673Z,100250.09
2022-11-08T21:06:27.825Z,100234.78
2022-11-08T21:09:01.960Z,100245.94
2022-11-08T21:11:34.960Z,100235.06
2022-11-08T21:14:03.849Z,100243.88
2022-11-08T21:16:42.406Z,100247.69
2022-11-08T21:19:14.900Z,100245.31
2022-11-08T21:21:46.655Z,100205.59
2022-11-08T21:24:14.349Z,100249.09
2022-11-08T21:26:44.373Z,100246.56
2022-11-08T21:29:11.560Z,100247.16
2022-11-08T21:31:38.772Z,100250.09
2022-11-08T21:34:06.303Z,100242.63
2022-11-08T21:36:34.304Z,100245.22
2022-11-08T21:39:01.657Z,100253.69
2022-11-08T21:41:28.883Z,100246.69
2022-11-08T21:43:56.687Z,100250.16
2022-11-08T21:46:27.442Z,100216.59
2022-11-08T21:49:00.430Z,100236.06
2022-11-08T21:51:29.682Z,100243.91
2022-11-08T21:53:58.840Z,100233.84
2022-11-08T21:56:29.656Z,100245.22
2022-11-08T21:58:56.829Z,100219.94
2022-11-08T22:01:29.910Z,100244.81
2022-11-08T22:03:58.549Z,100227.13
2022-11-08T22:06:25.806Z,100242.22
2022-11-08T22:08:52.831Z,100232.50
2022-11-08T22:11:19.818Z,100236.53
2022-11-08T22:13:46.928Z,100226.69
2022-11-08T22:16:13.884Z,100246.75
2022-11-08T22:21:41.273Z,100244.69
2022-11-08T22:24:22.694Z,100235.03
2022-11-08T22:26:51.875Z,100240.63
2022-11-08T22:29:19.426Z,100238.63
2022-11-08T22:31:47.088Z,100235.25
2022-11-08T22:34:14.282Z,100215.47
2022-11-08T22:36:45.210Z,100238.41
2022-11-08T22:39:20.623Z,100245.16
2022-11-08T22:41:50.917Z,100231.28
2022-11-08T22:44:18.899Z,100215.47
2022-11-08T22:46:47.430Z,100211.94
2022-11-08T22:49:15.454Z,100237.78
2022-11-08T22:51:43.193Z,100234.88
2022-11-08T22:54:10.685Z,100237.44
2022-11-08T22:56:38.417Z,100223.19
2022-11-08T22:59:05.464Z,100226.06
2022-11-08T23:01:33.179Z,100223.69
2022-11-08T23:04:00.630Z,100229.06
2022-11-08T23:06:27.674Z,100233.75
2022-11-08T23:08:54.755Z,100219.50
2022-11-08T23:11:40.473Z,100231.66
2022-11-08T23:14:32.433Z,100229.50
2022-11-08T23:17:03.014Z,100221.03
2022-11-08T23:19:48.542Z,100223.72
2022-11-08T23:22:36.354Z,100191.53
2022-11-08T23:25:04.725Z,100212.16
2022-11-08T23:27:50.426Z,100203.16
2022-11-08T23:30:37.267Z,100216.94
2022-11-08T23:33:05.899Z,100208.91
2022-11-08T23:35:33.187Z,100221.38
2022-11-08T23:38:00.171Z,100195.97
2022-11-08T23:40:45.808Z,100218.69
2022-11-08T23:43:32.483Z,100218.97
2022-11-08T23:46:09.711Z,100219.56
2022-11-08T23:48:37.818Z,100220.72
2022-11-08T23:51:05.837Z,100221.00
2022-11-08T23:53:34.711Z,100211.50
2022-11-08T23:56:01.692Z,100217.88
2022-11-08T23:58:28.926Z,100209.56
